sensor_id;sensor_type;location;lat;lon;timestamp;temperature;humidity
54796;DHT22;40693;43.884;20.340;2023-05-15T00:02:13;384.80;2329.60
54796;DHT22;40693;43.884;20.340;2023-05-15T00:04:39;384.80;2329.60
54796;DHT22;40693;43.884;20.340;2023-05-15T00:07:05;384.80;2329.60
54796;DHT22;40693;43.884;20.340;2023-05-15T00:09:30;384.90;2329.60
54796;DHT22;40693;43.884;20.340;2023-05-15T00:11:57;384.90;2329.60
54796;DHT22;40693;43.884;20.340;2023-05-15T00:14:23;384.90;2329.60
54796;DHT22;40693;43.884;20.340;2023-05-15T00:16:49;384.90;2329.60
54796;DHT22;40693;43.884;20.340;2023-05-15T00:19:15;384.90;2329.60
54796;DHT22;40693;43.884;20.340;2023-05-15T00:21:41;409.60;2355.20
54796;DHT22;40693;43.884;20.340;2023-05-15T00:24:07;384.90;2329.60
54796;DHT22;40693;43.884;20.340;2023-05-15T00:26:32;384.90;2329.60
54796;DHT22;40693;43.884;20.340;2023-05-15T00:28:58;409.60;2355.20
54796;DHT22;40693;43.884;20.340;2023-05-15T00:31:24;409.60;2355.20
54796;DHT22;40693;43.884;20.340;2023-05-15T00:33:50;409.60;2355.20
54796;DHT22;40693;43.884;20.340;2023-05-15T00:36:15;409.60;2355.20
54796;DHT22;40693;43.884;20.340;2023-05-15T00:38:42;384.90;2329.60
54796;DHT22;40693;43.884;20.340;2023-05-15T00:41:09;409.60;2355.20
54796;DHT22;40693;43.884;20.340;2023-05-15T00:43:38;409.60;2355.20
54796;DHT22;40693;43.884;20.340;2023-05-15T00:46:06;409.70;2355.20
54796;DHT22;40693;43.884;20.340;2023-05-15T00:48:32;384.90;2329.60
54796;DHT22;40693;43.884;20.340;2023-05-15T00:50:58;384.90;2329.60
54796;DHT22;40693;43.884;20.340;2023-05-15T00:53:26;384.90;2329.60
54796;DHT22;40693;43.884;20.340;2023-05-15T00:55:57;384.80;2329.60
54796;DHT22;40693;43.884;20.340;2023-05-15T00:58:24;384.80;2329.60
54796;DHT22;40693;43.884;20.340;2023-05-15T01:00:52;384.80;2329.60
54796;DHT22;40693;43.884;20.340;2023-05-15T01:03:18;384.80;2329.60
54796;DHT22;40693;43.884;20.340;2023-05-15T01:05:44;384.90;2329.60
54796;DHT22;40693;43.884;20.340;2023-05-15T01:10:47;409.60;2355.20
54796;DHT22;40693;43.884;20.340;2023-05-15T01:13:14;409.60;2355.20
54796;DHT22;40693;43.884;20.340;2023-05-15T01:15:41;409.70;2355.20
54796;DHT22;40693;43.884;20.340;2023-05-15T01:18:06;409.60;2355.20
54796;DHT22;40693;43.884;20.340;2023-05-15T01:29:23;409.70;2355.20
54796;DHT22;40693;43.884;20.340;2023-05-15T01:31:57;409.70;2355.20
54796;DHT22;40693;43.884;20.340;2023-05-15T01:34:31;409.70;2355.20
54796;DHT22;40693;43.884;20.340;2023-05-15T01:37:02;409.60;2355.20
54796;DHT22;40693;43.884;20.340;2023-05-15T01:39:32;409.60;2355.20
54796;DHT22;40693;43.884;20.340;2023-05-15T01:42:09;409.60;2355.20
54796;DHT22;40693;43.884;20.340;2023-05-15T01:44:37;384.90;2329.60
54796;DHT22;40693;43.884;20.340;2023-05-15T01:47:17;409.60;2355.20
54796;DHT22;40693;43.884;20.340;2023-05-15T01:49:44;384.90;2329.60
54796;DHT22;40693;43.884;20.340;2023-05-15T01:52:12;384.90;2329.60
54796;DHT22;40693;43.884;20.340;2023-05-15T01:54:39;409.70;2355.20
54796;DHT22;40693;43.884;20.340;2023-05-15T01:57:06;409.60;2355.20
54796;DHT22;40693;43.884;20.340;2023-05-15T01:59:34;409.70;2355.20
54796;DHT22;40693;43.884;20.340;2023-05-15T02:02:02;409.70;2355.20
54796;DHT22;40693;43.884;20.340;2023-05-15T02:04:31;409.70;2355.20
54796;DHT22;40693;43.884;20.340;2023-05-15T02:07:00;409.70;2355.20
54796;DHT22;40693;43.884;20.340;2023-05-15T02:09:26;409.70;2355.20
54796;DHT22;40693;43.884;20.340;2023-05-15T02:11:53;409.70;2355.20
54796;DHT22;40693;43.884;20.340;2023-05-15T02:14:19;409.70;2355.20
54796;DHT22;40693;43.884;20.340;2023-05-15T02:16:45;409.70;2355.20
54796;DHT22;40693;43.884;20.340;2023-05-15T02:19:11;409.70;2355.20
54796;DHT22;40693;43.884;20.340;2023-05-15T02:21:37;409.70;2355.20
54796;DHT22;40693;43.884;20.340;2023-05-15T02:24:02;409.70;2355.20
54796;DHT22;40693;43.884;20.340;2023-05-15T02:37:29;409.70;2355.20
54796;DHT22;40693;43.884;20.340;2023-05-15T02:39:56;409.70;2355.20
54796;DHT22;40693;43.884;20.340;2023-05-15T02:42:25;409.60;2355.20
54796;DHT22;40693;43.884;20.340;2023-05-15T02:44:53;409.70;2355.20
54796;DHT22;40693;43.884;20.340;2023-05-15T02:47:20;409.70;2355.20
54796;DHT22;40693;43.884;20.340;2023-05-15T02:49:46;409.60;2355.20
54796;DHT22;40693;43.884;20.340;2023-05-15T02:52:12;409.70;2355.20
54796;DHT22;40693;43.884;20.340;2023-05-15T02:54:38;409.70;2355.20
54796;DHT22;40693;43.884;20.340;2023-05-15T02:57:04;409.70;2355.20
54796;DHT22;40693;43.884;20.340;2023-05-15T02:59:30;409.70;2355.20
54796;DHT22;40693;43.884;20.340;2023-05-15T03:01:55;409.70;2355.20
54796;DHT22;40693;43.884;20.340;2023-05-15T03:04:21;409.70;2355.20
54796;DHT22;40693;43.884;20.340;2023-05-15T03:06:47;409.70;2355.20
54796;DHT22;40693;43.884;20.340;2023-05-15T03:09:12;409.70;2355.20
54796;DHT22;40693;43.884;20.340;2023-05-15T03:11:38;409.70;2355.20
54796;DHT22;40693;43.884;20.340;2023-05-15T03:14:04;409.70;2355.20
54796;DHT22;40693;43.884;20.340;2023-05-15T03:16:29;409.80;2355.20
54796;DHT22;40693;43.884;20.340;2023-05-15T03:18:55;409.80;2355.20
54796;DHT22;40693;43.884;20.340;2023-05-15T03:21:21;409.80;2355.20
54796;DHT22;40693;43.884;20.340;2023-05-15T03:23:46;409.80;2355.20
54796;DHT22;40693;43.884;20.340;2023-05-15T03:26:12;409.80;2355.20
54796;DHT22;40693;43.884;20.340;2023-05-15T03:28:38;409.90;2355.20
54796;DHT22;40693;43.884;20.340;2023-05-15T03:31:03;409.90;2355.20
54796;DHT22;40693;43.884;20.340;2023-05-15T03:33:30;409.90;2355.20
54796;DHT22;40693;43.884;20.340;2023-05-15T03:35:56;409.90;2355.20
54796;DHT22;40693;43.884;20.340;2023-05-15T03:38:21;410.00;2355.20
54796;DHT22;40693;43.884;20.340;2023-05-15T03:40:47;410.00;2355.20
54796;DHT22;40693;43.884;20.340;2023-05-15T03:43:13;410.00;2355.20
54796;DHT22;40693;43.884;20.340;2023-05-15T03:45:38;410.00;2355.20
54796;DHT22;40693;43.884;20.340;2023-05-15T03:48:04;410.00;2355.20
54796;DHT22;40693;43.884;20.340;2023-05-15T03:50:30;410.00;2355.20
54796;DHT22;40693;43.884;20.340;2023-05-15T03:52:56;410.00;2355.20
54796;DHT22;40693;43.884;20.340;2023-05-15T03:55:22;410.00;2355.20
54796;DHT22;40693;43.884;20.340;2023-05-15T03:57:47;409.90;2355.20
54796;DHT22;40693;43.884;20.340;2023-05-15T04:00:13;410.00;2355.20
54796;DHT22;40693;43.884;20.340;2023-05-15T04:02:39;409.90;2355.20
54796;DHT22;40693;43.884;20.340;2023-05-15T04:05:06;409.90;2355.20
54796;DHT22;40693;43.884;20.340;2023-05-15T04:07:33;409.90;2355.20
54796;DHT22;40693;43.884;20.340;2023-05-15T04:09:59;409.90;2355.20
54796;DHT22;40693;43.884;20.340;2023-05-15T04:12:33;410.00;2355.20
54796;DHT22;40693;43.884;20.340;2023-05-15T04:15:19;409.90;2355.20
54796;DHT22;40693;43.884;20.340;2023-05-15T04:17:47;410.00;2355.20
54796;DHT22;40693;43.884;20.340;2023-05-15T04:20:15;409.90;2355.20
54796;DHT22;40693;43.884;20.340;2023-05-15T04:22:42;409.90;2355.20
54796;DHT22;40693;43.884;20.340;2023-05-15T04:25:08;409.90;2355.20
54796;DHT22;40693;43.884;20.340;2023-05-15T04:27:35;409.90;2355.20
54796;DHT22;40693;43.884;20.340;2023-05-15T04:30:01;409.90;2355.20
54796;DHT22;40693;43.884;20.340;2023-05-15T04:32:27;409.90;2355.20
54796;DHT22;40693;43.884;20.340;2023-05-15T04:34:53;409.90;2355.20
54796;DHT22;40693;43.884;20.340;2023-05-15T04:37:18;409.90;2355.20
54796;DHT22;40693;43.884;20.340;2023-05-15T04:39:44;409.90;2355.20
54796;DHT22;40693;43.884;20.340;2023-05-15T04:42:10;409.80;2355.20
54796;DHT22;40693;43.884;20.340;2023-05-15T04:44:35;409.80;2355.20
54796;DHT22;40693;43.884;20.340;2023-05-15T04:47:01;409.80;2355.20
54796;DHT22;40693;43.884;20.340;2023-05-15T04:49:27;409.80;2355.20
54796;DHT22;40693;43.884;20.340;2023-05-15T04:51:53;409.90;2355.20
54796;DHT22;40693;43.884;20.340;2023-05-15T04:54:20;409.90;2355.20
54796;DHT22;40693;43.884;20.340;2023-05-15T04:56:45;409.90;2355.20
54796;DHT22;40693;43.884;20.340;2023-05-15T04:59:11;410.00;2355.20
54796;DHT22;40693;43.884;20.340;2023-05-15T05:01:38;409.90;2355.20
54796;DHT22;40693;43.884;20.340;2023-05-15T05:04:04;410.00;2355.20
54796;DHT22;40693;43.884;20.340;2023-05-15T05:06:30;410.00;2355.20
54796;DHT22;40693;43.884;20.340;2023-05-15T05:08:55;410.00;2355.20
54796;DHT22;40693;43.884;20.340;2023-05-15T05:11:21;410.00;2355.20
54796;DHT22;40693;43.884;20.340;2023-05-15T05:13:48;410.00;2355.20
54796;DHT22;40693;43.884;20.340;2023-05-15T05:16:14;410.00;2355.20
54796;DHT22;40693;43.884;20.340;2023-05-15T05:18:39;410.00;2355.20
54796;DHT22;40693;43.884;20.340;2023-05-15T05:21:05;409.90;2355.20
54796;DHT22;40693;43.884;20.340;2023-05-15T05:23:31;410.00;2355.20
54796;DHT22;40693;43.884;20.340;2023-05-15T05:25:59;410.00;2355.20
54796;DHT22;40693;43.884;20.340;2023-05-15T05:28:25;409.90;2355.20
54796;DHT22;40693;43.884;20.340;2023-05-15T05:30:51;410.00;2355.20
54796;DHT22;40693;43.884;20.340;2023-05-15T05:33:16;410.00;2355.20
54796;DHT22;40693;43.884;20.340;2023-05-15T05:35:42;410.00;2355.20
54796;DHT22;40693;43.884;20.340;2023-05-15T05:38:08;410.00;2355.20
54796;DHT22;40693;43.884;20.340;2023-05-15T05:40:33;410.00;2355.20
54796;DHT22;40693;43.884;20.340;2023-05-15T05:43:00;410.00;2355.20
54796;DHT22;40693;43.884;20.340;2023-05-15T05:45:26;410.00;2355.20
54796;DHT22;40693;43.884;20.340;2023-05-15T05:47:54;410.00;2355.20
54796;DHT22;40693;43.884;20.340;2023-05-15T05:50:20;410.00;2355.20
54796;DHT22;40693;43.884;20.340;2023-05-15T05:52:45;410.00;2355.20
54796;DHT22;40693;43.884;20.340;2023-05-15T05:55:11;410.00;2355.20
54796;DHT22;40693;43.884;20.340;2023-05-15T05:57:37;410.00;2355.20
54796;DHT22;40693;43.884;20.340;2023-05-15T06:00:03;410.00;2355.20
54796;DHT22;40693;43.884;20.340;2023-05-15T06:02:32;410.10;2355.20
54796;DHT22;40693;43.884;20.340;2023-05-15T06:04:58;410.10;2355.20
54796;DHT22;40693;43.884;20.340;2023-05-15T06:07:24;410.20;2355.20
54796;DHT22;40693;43.884;20.340;2023-05-15T06:09:49;410.20;2355.20
54796;DHT22;40693;43.884;20.340;2023-05-15T06:12:15;410.30;2355.20
54796;DHT22;40693;43.884;20.340;2023-05-15T06:14:41;410.30;2355.20
54796;DHT22;40693;43.884;20.340;2023-05-15T06:17:07;410.30;2355.20
54796;DHT22;40693;43.884;20.340;2023-05-15T06:19:32;410.40;2355.20
54796;DHT22;40693;43.884;20.340;2023-05-15T06:21:58;410.40;2355.20
54796;DHT22;40693;43.884;20.340;2023-05-15T06:24:24;410.40;2355.20
54796;DHT22;40693;43.884;20.340;2023-05-15T06:26:49;410.50;2355.20
54796;DHT22;40693;43.884;20.340;2023-05-15T06:29:15;410.50;2355.20
54796;DHT22;40693;43.884;20.340;2023-05-15T06:31:41;410.50;2355.20
54796;DHT22;40693;43.884;20.340;2023-05-15T06:34:06;410.50;2355.20
54796;DHT22;40693;43.884;20.340;2023-05-15T06:36:32;410.50;2355.20
54796;DHT22;40693;43.884;20.340;2023-05-15T06:38:58;435.20;2355.20
54796;DHT22;40693;43.884;20.340;2023-05-15T06:41:23;435.20;2355.20
54796;DHT22;40693;43.884;20.340;2023-05-15T06:43:49;410.50;2355.20
54796;DHT22;40693;43.884;20.340;2023-05-15T06:46:15;410.50;2355.20
54796;DHT22;40693;43.884;20.340;2023-05-15T06:48:43;410.50;2355.20
54796;DHT22;40693;43.884;20.340;2023-05-15T06:51:09;410.50;2355.20
54796;DHT22;40693;43.884;20.340;2023-05-15T06:53:35;410.50;2355.20
54796;DHT22;40693;43.884;20.340;2023-05-15T06:56:01;435.20;2355.20
54796;DHT22;40693;43.884;20.340;2023-05-15T06:58:27;435.20;2355.20
54796;DHT22;40693;43.884;20.340;2023-05-15T07:00:52;435.30;2355.20
54796;DHT22;40693;43.884;20.340;2023-05-15T07:03:18;435.30;2355.20
54796;DHT22;40693;43.884;20.340;2023-05-15T07:05:44;435.30;2355.20
54796;DHT22;40693;43.884;20.340;2023-05-15T07:08:10;435.30;2355.20
54796;DHT22;40693;43.884;20.340;2023-05-15T07:10:35;435.30;2355.20
54796;DHT22;40693;43.884;20.340;2023-05-15T07:13:01;435.30;2355.20
54796;DHT22;40693;43.884;20.340;2023-05-15T07:15:27;435.30;2355.20
54796;DHT22;40693;43.884;20.340;2023-05-15T07:17:53;435.30;2355.20
54796;DHT22;40693;43.884;20.340;2023-05-15T07:20:19;435.20;2355.20
54796;DHT22;40693;43.884;20.340;2023-05-15T07:22:44;435.20;2355.20
54796;DHT22;40693;43.884;20.340;2023-05-15T07:25:10;435.30;2355.20
54796;DHT22;40693;43.884;20.340;2023-05-15T07:27:36;435.30;2355.20
54796;DHT22;40693;43.884;20.340;2023-05-15T07:30:03;435.30;2355.20
54796;DHT22;40693;43.884;20.340;2023-05-15T07:32:29;435.30;2355.20
54796;DHT22;40693;43.884;20.340;2023-05-15T07:34:55;435.30;2355.20
54796;DHT22;40693;43.884;20.340;2023-05-15T07:37:21;435.40;2355.20
54796;DHT22;40693;43.884;20.340;2023-05-15T07:39:47;435.40;2355.20
54796;DHT22;40693;43.884;20.340;2023-05-15T07:42:14;435.40;2355.20
54796;DHT22;40693;43.884;20.340;2023-05-15T07:44:40;435.40;2355.20
54796;DHT22;40693;43.884;20.340;2023-05-15T07:47:05;435.40;2355.20
54796;DHT22;40693;43.884;20.340;2023-05-15T07:49:31;435.40;2355.20
54796;DHT22;40693;43.884;20.340;2023-05-15T07:51:57;435.30;2355.20
54796;DHT22;40693;43.884;20.340;2023-05-15T07:54:22;435.40;2355.20
54796;DHT22;40693;43.884;20.340;2023-05-15T07:56:48;435.40;2355.20
54796;DHT22;40693;43.884;20.340;2023-05-15T07:59:14;435.40;2355.20
54796;DHT22;40693;43.884;20.340;2023-05-15T08:01:40;435.40;2355.20
54796;DHT22;40693;43.884;20.340;2023-05-15T08:04:07;435.30;2355.20
54796;DHT22;40693;43.884;20.340;2023-05-15T08:06:34;435.30;2355.20
54796;DHT22;40693;43.884;20.340;2023-05-15T08:09:01;435.40;2355.20
54796;DHT22;40693;43.884;20.340;2023-05-15T08:11:27;435.40;2355.20
54796;DHT22;40693;43.884;20.340;2023-05-15T08:13:53;435.40;2355.20
54796;DHT22;40693;43.884;20.340;2023-05-15T08:16:18;435.40;2355.20
54796;DHT22;40693;43.884;20.340;2023-05-15T08:18:44;435.40;2355.20
54796;DHT22;40693;43.884;20.340;2023-05-15T08:21:10;435.40;2355.20
54796;DHT22;40693;43.884;20.340;2023-05-15T08:23:36;435.40;2355.20
54796;DHT22;40693;43.884;20.340;2023-05-15T08:26:01;435.80;2355.20
54796;DHT22;40693;43.884;20.340;2023-05-15T08:28:27;435.60;2355.20
54796;DHT22;40693;43.884;20.340;2023-05-15T08:30:53;435.70;2355.20
54796;DHT22;40693;43.884;20.340;2023-05-15T08:33:18;435.80;2355.20
54796;DHT22;40693;43.884;20.340;2023-05-15T08:35:44;435.80;2355.20
54796;DHT22;40693;43.884;20.340;2023-05-15T08:38:10;435.80;2355.20
54796;DHT22;40693;43.884;20.340;2023-05-15T08:40:36;435.90;2355.20
54796;DHT22;40693;43.884;20.340;2023-05-15T08:43:10;435.90;2355.20
54796;DHT22;40693;43.884;20.340;2023-05-15T08:45:39;436.00;2355.20
54796;DHT22;40693;43.884;20.340;2023-05-15T08:48:15;436.00;2355.20
54796;DHT22;40693;43.884;20.340;2023-05-15T08:50:41;436.10;2355.20
54796;DHT22;40693;43.884;20.340;2023-05-15T08:53:12;460.80;2380.80
54796;DHT22;40693;43.884;20.340;2023-05-15T08:55:38;460.90;2380.80
54796;DHT22;40693;43.884;20.340;2023-05-15T08:58:04;461.00;2380.80
54796;DHT22;40693;43.884;20.340;2023-05-15T09:00:30;461.10;2380.80
54796;DHT22;40693;43.884;20.340;2023-05-15T09:02:58;461.10;2380.80
54796;DHT22;40693;43.884;20.340;2023-05-15T09:05:27;461.20;2380.80
54796;DHT22;40693;43.884;20.340;2023-05-15T09:07:53;461.40;2380.80
54796;DHT22;40693;43.884;20.340;2023-05-15T09:10:20;461.40;2380.80
54796;DHT22;40693;43.884;20.340;2023-05-15T09:12:50;461.60;2380.80
54796;DHT22;40693;43.884;20.340;2023-05-15T09:15:17;461.60;2380.80
54796;DHT22;40693;43.884;20.340;2023-05-15T09:17:46;461.60;2380.80
54796;DHT22;40693;43.884;20.340;2023-05-15T09:20:33;461.60;2380.80
54796;DHT22;40693;43.884;20.340;2023-05-15T09:23:01;461.50;2380.80
54796;DHT22;40693;43.884;20.340;2023-05-15T09:25:37;461.50;2380.80
54796;DHT22;40693;43.884;20.340;2023-05-15T09:28:04;461.60;2380.80
54796;DHT22;40693;43.884;20.340;2023-05-15T09:30:29;461.60;2380.80
54796;DHT22;40693;43.884;20.340;2023-05-15T09:33:00;461.70;2380.80
54796;DHT22;40693;43.884;20.340;2023-05-15T09:38:02;461.70;2380.80
54796;DHT22;40693;43.884;20.340;2023-05-15T09:40:29;486.40;2380.80
54796;DHT22;40693;43.884;20.340;2023-05-15T09:42:57;486.50;2380.80
54796;DHT22;40693;43.884;20.340;2023-05-15T09:45:23;486.60;2380.80
54796;DHT22;40693;43.884;20.340;2023-05-15T09:47:51;486.70;2380.80
54796;DHT22;40693;43.884;20.340;2023-05-15T09:50:22;486.80;2380.80
54796;DHT22;40693;43.884;20.340;2023-05-15T09:52:48;486.90;2380.80
54796;DHT22;40693;43.884;20.340;2023-05-15T09:55:15;486.90;2380.80
54796;DHT22;40693;43.884;20.340;2023-05-15T09:58:02;487.00;2380.80
54796;DHT22;40693;43.884;20.340;2023-05-15T10:00:29;487.10;2380.80
54796;DHT22;40693;43.884;20.340;2023-05-15T10:03:00;487.20;2380.80
54796;DHT22;40693;43.884;20.340;2023-05-15T10:05:26;487.20;2380.80
54796;DHT22;40693;43.884;20.340;2023-05-15T10:07:56;487.20;2380.80
54796;DHT22;40693;43.884;20.340;2023-05-15T10:10:22;487.20;2380.80
54796;DHT22;40693;43.884;20.340;2023-05-15T10:12:52;487.30;2380.80
54796;DHT22;40693;43.884;20.340;2023-05-15T10:15:20;512.00;2380.80
54796;DHT22;40693;43.884;20.340;2023-05-15T10:17:49;512.10;2380.80
54796;DHT22;40693;43.884;20.340;2023-05-15T10:20:19;512.20;2380.80
54796;DHT22;40693;43.884;20.340;2023-05-15T10:22:47;512.20;2380.80
54796;DHT22;40693;43.884;20.340;2023-05-15T10:25:32;512.20;2380.80
54796;DHT22;40693;43.884;20.340;2023-05-15T10:27:57;512.20;2380.80
54796;DHT22;40693;43.884;20.340;2023-05-15T10:30:24;512.30;2380.80
54796;DHT22;40693;43.884;20.340;2023-05-15T10:32:51;512.30;2380.80
54796;DHT22;40693;43.884;20.340;2023-05-15T10:35:17;512.30;2380.80
54796;DHT22;40693;43.884;20.340;2023-05-15T10:37:46;512.50;2380.80
54796;DHT22;40693;43.884;20.340;2023-05-15T10:40:14;512.50;2380.80
54796;DHT22;40693;43.884;20.340;2023-05-15T10:42:45;512.50;2380.80
54796;DHT22;40693;43.884;20.340;2023-05-15T10:45:11;512.50;2380.80
54796;DHT22;40693;43.884;20.340;2023-05-15T10:47:40;512.50;2380.80
54796;DHT22;40693;43.884;20.340;2023-05-15T10:50:07;512.50;2380.80
54796;DHT22;40693;43.884;20.340;2023-05-15T10:52:37;512.60;2380.80
54796;DHT22;40693;43.884;20.340;2023-05-15T10:55:15;512.70;2380.80
54796;DHT22;40693;43.884;20.340;2023-05-15T10:57:44;512.70;2380.80
54796;DHT22;40693;43.884;20.340;2023-05-15T11:02:48;512.50;2380.80
54796;DHT22;40693;43.884;20.340;2023-05-15T11:05:18;512.50;2380.80
54796;DHT22;40693;43.884;20.340;2023-05-15T11:08:09;512.50;2380.80
54796;DHT22;40693;43.884;20.340;2023-05-15T11:12:59;512.50;2380.80
54796;DHT22;40693;43.884;20.340;2023-05-15T11:15:25;512.60;2380.80
54796;DHT22;40693;43.884;20.340;2023-05-15T11:18:04;512.70;2380.80
54796;DHT22;40693;43.884;20.340;2023-05-15T11:20:38;512.80;2380.80
54796;DHT22;40693;43.884;20.340;2023-05-15T11:23:04;512.90;2380.80
54796;DHT22;40693;43.884;20.340;2023-05-15T11:25:33;512.90;2380.80
54796;DHT22;40693;43.884;20.340;2023-05-15T11:28:02;512.90;2380.80
54796;DHT22;40693;43.884;20.340;2023-05-15T11:30:38;537.60;2406.40
54796;DHT22;40693;43.884;20.340;2023-05-15T11:33:10;537.60;2406.40
54796;DHT22;40693;43.884;20.340;2023-05-15T11:35:45;537.80;2406.40
54796;DHT22;40693;43.884;20.340;2023-05-15T11:38:24;537.90;2406.40
54796;DHT22;40693;43.884;20.340;2023-05-15T11:40:53;537.90;2406.40
54796;DHT22;40693;43.884;20.340;2023-05-15T11:43:30;537.90;2406.40
54796;DHT22;40693;43.884;20.340;2023-05-15T11:48:36;537.90;2406.40
54796;DHT22;40693;43.884;20.340;2023-05-15T11:51:04;538.00;2406.40
54796;DHT22;40693;43.884;20.340;2023-05-15T11:53:32;538.00;2406.40
54796;DHT22;40693;43.884;20.340;2023-05-15T11:55:58;537.90;2406.40
54796;DHT22;40693;43.884;20.340;2023-05-15T11:58:25;538.00;2406.40
54796;DHT22;40693;43.884;20.340;2023-05-15T12:00:52;538.00;2406.40
54796;DHT22;40693;43.884;20.340;2023-05-15T12:03:33;538.00;2406.40
54796;DHT22;40693;43.884;20.340;2023-05-15T12:06:02;538.00;2406.40
54796;DHT22;40693;43.884;20.340;2023-05-15T12:08:35;538.20;2406.40
54796;DHT22;40693;43.884;20.340;2023-05-15T12:11:05;538.50;2406.40
54796;DHT22;40693;43.884;20.340;2023-05-15T12:13:31;563.20;2432.00
54796;DHT22;40693;43.884;20.340;2023-05-15T12:15:58;563.40;2432.00
54796;DHT22;40693;43.884;20.340;2023-05-15T12:18:24;563.50;2432.00
54796;DHT22;40693;43.884;20.340;2023-05-15T12:20:53;563.60;2432.00
54796;DHT22;40693;43.884;20.340;2023-05-15T12:23:23;563.70;2432.00
54796;DHT22;40693;43.884;20.340;2023-05-15T12:25:52;563.90;2432.00
54796;DHT22;40693;43.884;20.340;2023-05-15T12:28:19;564.10;2432.00
54796;DHT22;40693;43.884;20.340;2023-05-15T12:30:45;564.10;2432.00
54796;DHT22;40693;43.884;20.340;2023-05-15T12:33:11;564.00;2432.00
54796;DHT22;40693;43.884;20.340;2023-05-15T12:35:49;564.00;2432.00
54796;DHT22;40693;43.884;20.340;2023-05-15T12:38:16;563.90;2432.00
54796;DHT22;40693;43.884;20.340;2023-05-15T12:40:45;563.80;2432.00
54796;DHT22;40693;43.884;20.340;2023-05-15T12:43:12;563.60;2432.00
54796;DHT22;40693;43.884;20.340;2023-05-15T12:45:39;563.40;2432.00
54796;DHT22;40693;43.884;20.340;2023-05-15T12:48:05;563.20;2432.00
54796;DHT22;40693;43.884;20.340;2023-05-15T12:50:33;538.50;2406.40
54796;DHT22;40693;43.884;20.340;2023-05-15T12:53:03;538.30;2406.40
54796;DHT22;40693;43.884;20.340;2023-05-15T12:55:33;538.20;2406.40
54796;DHT22;40693;43.884;20.340;2023-05-15T12:58:05;538.00;2406.40
54796;DHT22;40693;43.884;20.340;2023-05-15T13:00:33;537.90;2406.40
54796;DHT22;40693;43.884;20.340;2023-05-15T13:03:00;537.80;2406.40
54796;DHT22;40693;43.884;20.340;2023-05-15T13:05:26;537.80;2406.40
54796;DHT22;40693;43.884;20.340;2023-05-15T13:07:52;537.80;2406.40
54796;DHT22;40693;43.884;20.340;2023-05-15T13:10:22;537.80;2406.40
54796;DHT22;40693;43.884;20.340;2023-05-15T13:12:52;537.70;2406.40
54796;DHT22;40693;43.884;20.340;2023-05-15T13:17:57;537.60;2406.40
54796;DHT22;40693;43.884;20.340;2023-05-15T13:20:23;537.60;2406.40
54796;DHT22;40693;43.884;20.340;2023-05-15T13:22:49;537.60;2406.40
54796;DHT22;40693;43.884;20.340;2023-05-15T13:25:19;537.60;2406.40
54796;DHT22;40693;43.884;20.340;2023-05-15T13:27:46;537.60;2406.40
54796;DHT22;40693;43.884;20.340;2023-05-15T13:30:16;537.60;2406.40
54796;DHT22;40693;43.884;20.340;2023-05-15T13:32:42;537.60;2406.40
54796;DHT22;40693;43.884;20.340;2023-05-15T13:35:09;537.60;2406.40
54796;DHT22;40693;43.884;20.340;2023-05-15T13:37:36;537.70;2406.40
54796;DHT22;40693;43.884;20.340;2023-05-15T13:40:03;537.80;2406.40
54796;DHT22;40693;43.884;20.340;2023-05-15T13:42:37;537.90;2406.40
54796;DHT22;40693;43.884;20.340;2023-05-15T13:45:14;538.00;2406.40
54796;DHT22;40693;43.884;20.340;2023-05-15T13:47:41;538.20;2406.40
54796;DHT22;40693;43.884;20.340;2023-05-15T13:50:12;538.20;2406.40
54796;DHT22;40693;43.884;20.340;2023-05-15T13:52:38;538.40;2406.40
54796;DHT22;40693;43.884;20.340;2023-05-15T13:55:05;538.50;2406.40
54796;DHT22;40693;43.884;20.340;2023-05-15T13:57:31;563.20;2432.00
54796;DHT22;40693;43.884;20.340;2023-05-15T13:59:57;538.50;2406.40
54796;DHT22;40693;43.884;20.340;2023-05-15T14:02:23;538.50;2406.40
54796;DHT22;40693;43.884;20.340;2023-05-15T14:04:52;538.50;2406.40
54796;DHT22;40693;43.884;20.340;2023-05-15T14:07:21;538.50;2406.40
54796;DHT22;40693;43.884;20.340;2023-05-15T14:09:47;538.40;2406.40
54796;DHT22;40693;43.884;20.340;2023-05-15T14:12:13;538.30;2406.40
54796;DHT22;40693;43.884;20.340;2023-05-15T14:14:38;538.30;2406.40
54796;DHT22;40693;43.884;20.340;2023-05-15T14:17:04;538.30;2406.40
54796;DHT22;40693;43.884;20.340;2023-05-15T14:19:30;538.30;2406.40
54796;DHT22;40693;43.884;20.340;2023-05-15T14:21:55;538.30;2406.40
54796;DHT22;40693;43.884;20.340;2023-05-15T14:24:21;538.20;2406.40
54796;DHT22;40693;43.884;20.340;2023-05-15T14:26:47;538.20;2406.40
54796;DHT22;40693;43.884;20.340;2023-05-15T14:29:12;538.20;2406.40
54796;DHT22;40693;43.884;20.340;2023-05-15T14:31:40;538.10;2406.40
54796;DHT22;40693;43.884;20.340;2023-05-15T14:34:06;538.00;2406.40
54796;DHT22;40693;43.884;20.340;2023-05-15T14:36:32;538.00;2406.40
54796;DHT22;40693;43.884;20.340;2023-05-15T14:38:58;538.00;2406.40
54796;DHT22;40693;43.884;20.340;2023-05-15T14:41:23;538.00;2406.40
54796;DHT22;40693;43.884;20.340;2023-05-15T14:43:49;538.00;2406.40
54796;DHT22;40693;43.884;20.340;2023-05-15T14:46:15;538.00;2406.40
54796;DHT22;40693;43.884;20.340;2023-05-15T14:48:40;537.90;2406.40
54796;DHT22;40693;43.884;20.340;2023-05-15T14:51:06;537.80;2406.40
54796;DHT22;40693;43.884;20.340;2023-05-15T14:53:32;537.80;2406.40
54796;DHT22;40693;43.884;20.340;2023-05-15T14:55:59;537.80;2406.40
54796;DHT22;40693;43.884;20.340;2023-05-15T14:58:25;537.70;2406.40
54796;DHT22;40693;43.884;20.340;2023-05-15T15:00:50;537.60;2406.40
54796;DHT22;40693;43.884;20.340;2023-05-15T15:03:16;537.70;2406.40
54796;DHT22;40693;43.884;20.340;2023-05-15T15:05:43;537.80;2406.40
54796;DHT22;40693;43.884;20.340;2023-05-15T15:08:09;537.80;2406.40
54796;DHT22;40693;43.884;20.340;2023-05-15T15:10:38;537.90;2406.40
54796;DHT22;40693;43.884;20.340;2023-05-15T15:13:04;537.90;2406.40